sensor_id;sensor_type;location;lat;lon;timestamp;P1;durP1;ratioP1;P2;durP2;ratioP2
31872;SDS011;22407;42.820;23.374;2023-02-10T00:00:40;15.27;;;5.57;;
31872;SDS011;22407;42.820;23.374;2023-02-10T00:03:05;16.33;;;5.67;;
31872;SDS011;22407;42.820;23.374;2023-02-10T00:05:31;16.43;;;6.00;;
31872;SDS011;22407;42.820;23.374;2023-02-10T00:07:57;15.30;;;6.13;;
31872;SDS011;22407;42.820;23.374;2023-02-10T00:10:22;14.77;;;5.30;;
31872;SDS011;22407;42.820;23.374;2023-02-10T00:12:47;13.40;;;4.97;;
31872;SDS011;22407;42.820;23.374;2023-02-10T00:15:12;11.87;;;5.30;;
31872;SDS011;22407;42.820;23.374;2023-02-10T00:17:38;16.63;;;5.37;;
31872;SDS011;22407;42.820;23.374;2023-02-10T00:20:03;14.93;;;5.33;;
31872;SDS011;22407;42.820;23.374;2023-02-10T00:22:28;16.77;;;5.07;;
31872;SDS011;22407;42.820;23.374;2023-02-10T00:24:53;16.27;;;6.43;;
31872;SDS011;22407;42.820;23.374;2023-02-10T00:27:19;14.63;;;5.43;;
31872;SDS011;22407;42.820;23.374;2023-02-10T00:29:48;17.80;;;6.85;;
31872;SDS011;22407;42.820;23.374;2023-02-10T00:32:14;15.23;;;6.37;;
31872;SDS011;22407;42.820;23.374;2023-02-10T00:34:39;14.70;;;5.93;;
31872;SDS011;22407;42.820;23.374;2023-02-10T00:37:04;15.30;;;6.60;;
31872;SDS011;22407;42.820;23.374;2023-02-10T00:39:30;18.40;;;6.40;;
31872;SDS011;22407;42.820;23.374;2023-02-10T00:41:55;16.07;;;5.63;;
31872;SDS011;22407;42.820;23.374;2023-02-10T00:44:20;14.40;;;5.73;;
31872;SDS011;22407;42.820;23.374;2023-02-10T00:46:45;16.27;;;5.57;;
31872;SDS011;22407;42.820;23.374;2023-02-10T00:49:11;25.27;;;8.73;;
31872;SDS011;22407;42.820;23.374;2023-02-10T00:51:37;16.73;;;7.17;;
31872;SDS011;22407;42.820;23.374;2023-02-10T00:54:02;18.27;;;6.20;;
31872;SDS011;22407;42.820;23.374;2023-02-10T00:56:27;19.65;;;5.93;;
31872;SDS011;22407;42.820;23.374;2023-02-10T00:58:53;14.20;;;5.80;;
31872;SDS011;22407;42.820;23.374;2023-02-10T01:01:18;14.93;;;5.63;;
31872;SDS011;22407;42.820;23.374;2023-02-10T01:03:43;12.83;;;4.97;;
31872;SDS011;22407;42.820;23.374;2023-02-10T01:06:09;14.77;;;4.97;;
31872;SDS011;22407;42.820;23.374;2023-02-10T01:08:34;14.52;;;4.95;;
31872;SDS011;22407;42.820;23.374;2023-02-10T01:11:04;14.40;;;5.23;;
31872;SDS011;22407;42.820;23.374;2023-02-10T01:13:30;12.67;;;4.80;;
31872;SDS011;22407;42.820;23.374;2023-02-10T01:15:55;16.85;;;6.05;;
31872;SDS011;22407;42.820;23.374;2023-02-10T01:18:21;13.53;;;5.57;;
31872;SDS011;22407;42.820;23.374;2023-02-10T01:20:46;10.83;;;4.57;;
31872;SDS011;22407;42.820;23.374;2023-02-10T01:23:11;13.07;;;5.07;;
31872;SDS011;22407;42.820;23.374;2023-02-10T01:25:37;13.50;;;4.63;;
31872;SDS011;22407;42.820;23.374;2023-02-10T01:28:03;15.82;;;4.57;;
31872;SDS011;22407;42.820;23.374;2023-02-10T01:30:28;12.90;;;4.30;;
31872;SDS011;22407;42.820;23.374;2023-02-10T01:32:54;13.73;;;4.60;;
31872;SDS011;22407;42.820;23.374;2023-02-10T01:35:19;12.60;;;4.40;;
31872;SDS011;22407;42.820;23.374;2023-02-10T01:37:44;12.43;;;4.30;;
31872;SDS011;22407;42.820;23.374;2023-02-10T01:40:10;14.63;;;5.33;;
31872;SDS011;22407;42.820;23.374;2023-02-10T01:42:35;14.68;;;4.68;;
31872;SDS011;22407;42.820;23.374;2023-02-10T01:45:10;11.10;;;4.53;;
31872;SDS011;22407;42.820;23.374;2023-02-10T01:47:37;11.43;;;5.22;;
31872;SDS011;22407;42.820;23.374;2023-02-10T01:50:02;13.70;;;5.00;;
31872;SDS011;22407;42.820;23.374;2023-02-10T01:52:28;13.23;;;5.55;;
31872;SDS011;22407;42.820;23.374;2023-02-10T01:54:57;12.82;;;4.57;;
31872;SDS011;22407;42.820;23.374;2023-02-10T01:57:23;13.75;;;5.57;;
31872;SDS011;22407;42.820;23.374;2023-02-10T01:59:49;9.07;;;3.78;;
31872;SDS011;22407;42.820;23.374;2023-02-10T02:02:14;12.13;;;5.40;;
31872;SDS011;22407;42.820;23.374;2023-02-10T02:04:51;14.77;;;5.40;;
31872;SDS011;22407;42.820;23.374;2023-02-10T02:07:23;15.45;;;6.45;;
31872;SDS011;22407;42.820;23.374;2023-02-10T02:09:51;17.70;;;6.03;;
31872;SDS011;22407;42.820;23.374;2023-02-10T02:33:03;12.10;;;4.97;;
31872;SDS011;22407;42.820;23.374;2023-02-10T02:35:36;14.73;;;5.50;;
31872;SDS011;22407;42.820;23.374;2023-02-10T02:38:04;13.80;;;5.43;;
31872;SDS011;22407;42.820;23.374;2023-02-10T02:40:29;14.30;;;5.53;;
31872;SDS011;22407;42.820;23.374;2023-02-10T02:42:54;10.40;;;5.27;;
31872;SDS011;22407;42.820;23.374;2023-02-10T02:45:21;17.73;;;5.70;;
31872;SDS011;22407;42.820;23.374;2023-02-10T02:50:38;10.40;;;3.95;;
31872;SDS011;22407;42.820;23.374;2023-02-10T02:53:09;16.52;;;6.05;;
31872;SDS011;22407;42.820;23.374;2023-02-10T02:58:02;10.60;;;3.53;;
31872;SDS011;22407;42.820;23.374;2023-02-10T03:00:30;11.32;;;4.22;;
31872;SDS011;22407;42.820;23.374;2023-02-10T03:02:57;13.17;;;4.50;;
31872;SDS011;22407;42.820;23.374;2023-02-10T03:05:23;8.48;;;3.30;;
31872;SDS011;22407;42.820;23.374;2023-02-10T03:07:52;9.77;;;4.80;;
31872;SDS011;22407;42.820;23.374;2023-02-10T03:10:18;14.03;;;4.00;;
31872;SDS011;22407;42.820;23.374;2023-02-10T03:12:43;10.90;;;3.90;;
31872;SDS011;22407;42.820;23.374;2023-02-10T03:15:08;13.60;;;4.77;;
31872;SDS011;22407;42.820;23.374;2023-02-10T03:17:34;11.15;;;4.35;;
31872;SDS011;22407;42.820;23.374;2023-02-10T03:20:00;10.18;;;4.30;;
31872;SDS011;22407;42.820;23.374;2023-02-10T03:22:25;11.30;;;4.13;;
31872;SDS011;22407;42.820;23.374;2023-02-10T03:24:50;10.63;;;4.37;;
31872;SDS011;22407;42.820;23.374;2023-02-10T03:27:15;15.30;;;5.03;;
31872;SDS011;22407;42.820;23.374;2023-02-10T03:29:41;8.43;;;4.00;;
31872;SDS011;22407;42.820;23.374;2023-02-10T03:32:07;11.77;;;4.20;;
31872;SDS011;22407;42.820;23.374;2023-02-10T03:34:32;10.30;;;3.83;;
31872;SDS011;22407;42.820;23.374;2023-02-10T03:36:57;12.43;;;4.07;;
31872;SDS011;22407;42.820;23.374;2023-02-10T03:39:23;12.90;;;5.20;;
31872;SDS011;22407;42.820;23.374;2023-02-10T03:41:48;13.27;;;4.80;;
31872;SDS011;22407;42.820;23.374;2023-02-10T03:44:13;15.90;;;5.60;;
31872;SDS011;22407;42.820;23.374;2023-02-10T03:46:38;13.07;;;4.93;;
31872;SDS011;22407;42.820;23.374;2023-02-10T03:49:04;13.43;;;6.00;;
31872;SDS011;22407;42.820;23.374;2023-02-10T03:51:29;19.88;;;8.10;;
31872;SDS011;22407;42.820;23.374;2023-02-10T03:53:55;41.40;;;15.73;;
31872;SDS011;22407;42.820;23.374;2023-02-10T03:56:20;38.90;;;15.60;;
31872;SDS011;22407;42.820;23.374;2023-02-10T03:58:45;34.33;;;13.10;;
31872;SDS011;22407;42.820;23.374;2023-02-10T04:01:15;22.83;;;9.65;;
31872;SDS011;22407;42.820;23.374;2023-02-10T04:03:41;18.02;;;8.38;;
31872;SDS011;22407;42.820;23.374;2023-02-10T04:06:07;27.13;;;10.98;;
31872;SDS011;22407;42.820;23.374;2023-02-10T04:08:32;19.57;;;8.50;;
31872;SDS011;22407;42.820;23.374;2023-02-10T04:10:57;19.40;;;6.87;;
31872;SDS011;22407;42.820;23.374;2023-02-10T04:13:23;15.80;;;7.00;;
31872;SDS011;22407;42.820;23.374;2023-02-10T04:15:48;20.00;;;8.50;;
31872;SDS011;22407;42.820;23.374;2023-02-10T04:18:13;19.30;;;8.90;;
31872;SDS011;22407;42.820;23.374;2023-02-10T04:20:38;19.00;;;7.37;;
31872;SDS011;22407;42.820;23.374;2023-02-10T04:23:04;12.87;;;6.10;;
31872;SDS011;22407;42.820;23.374;2023-02-10T04:25:29;16.80;;;6.80;;
31872;SDS011;22407;42.820;23.374;2023-02-10T04:27:54;17.47;;;7.90;;
31872;SDS011;22407;42.820;23.374;2023-02-10T04:30:19;15.47;;;7.33;;
31872;SDS011;22407;42.820;23.374;2023-02-10T04:32:45;20.43;;;8.27;;
31872;SDS011;22407;42.820;23.374;2023-02-10T04:35:10;18.55;;;6.88;;
31872;SDS011;22407;42.820;23.374;2023-02-10T04:37:35;26.77;;;7.97;;
31872;SDS011;22407;42.820;23.374;2023-02-10T04:40:00;25.87;;;7.17;;
31872;SDS011;22407;42.820;23.374;2023-02-10T04:42:26;27.33;;;7.90;;
31872;SDS011;22407;42.820;23.374;2023-02-10T04:44:55;18.83;;;7.27;;
31872;SDS011;22407;42.820;23.374;2023-02-10T04:47:20;16.33;;;6.05;;
31872;SDS011;22407;42.820;23.374;2023-02-10T04:49:45;15.23;;;6.63;;
31872;SDS011;22407;42.820;23.374;2023-02-10T04:52:11;17.47;;;6.67;;
31872;SDS011;22407;42.820;23.374;2023-02-10T04:54:36;16.07;;;6.13;;
31872;SDS011;22407;42.820;23.374;2023-02-10T04:57:01;17.00;;;6.00;;
31872;SDS011;22407;42.820;23.374;2023-02-10T04:59:27;15.30;;;5.27;;
31872;SDS011;22407;42.820;23.374;2023-02-10T05:01:52;14.53;;;5.57;;
31872;SDS011;22407;42.820;23.374;2023-02-10T05:04:17;17.70;;;5.60;;
31872;SDS011;22407;42.820;23.374;2023-02-10T05:06:42;14.53;;;6.30;;
31872;SDS011;22407;42.820;23.374;2023-02-10T05:09:08;13.02;;;4.70;;
31872;SDS011;22407;42.820;23.374;2023-02-10T05:11:33;9.57;;;4.67;;
31872;SDS011;22407;42.820;23.374;2023-02-10T05:13:58;14.03;;;5.47;;
31872;SDS011;22407;42.820;23.374;2023-02-10T05:16:23;12.23;;;4.70;;
31872;SDS011;22407;42.820;23.374;2023-02-10T05:18:49;17.03;;;7.37;;
31872;SDS011;22407;42.820;23.374;2023-02-10T05:21:14;25.17;;;9.83;;
31872;SDS011;22407;42.820;23.374;2023-02-10T05:23:40;57.50;;;23.33;;
31872;SDS011;22407;42.820;23.374;2023-02-10T05:26:05;40.75;;;16.45;;
31872;SDS011;22407;42.820;23.374;2023-02-10T05:28:31;26.63;;;10.85;;
31872;SDS011;22407;42.820;23.374;2023-02-10T05:30:56;20.10;;;9.00;;
31872;SDS011;22407;42.820;23.374;2023-02-10T05:33:21;17.07;;;7.47;;
31872;SDS011;22407;42.820;23.374;2023-02-10T05:35:46;26.27;;;9.17;;
31872;SDS011;22407;42.820;23.374;2023-02-10T05:38:12;19.03;;;8.40;;
31872;SDS011;22407;42.820;23.374;2023-02-10T05:40:37;21.27;;;8.40;;
31872;SDS011;22407;42.820;23.374;2023-02-10T05:43:02;19.03;;;7.33;;
31872;SDS011;22407;42.820;23.374;2023-02-10T05:45:28;39.95;;;13.00;;
31872;SDS011;22407;42.820;23.374;2023-02-10T05:47:53;28.37;;;8.80;;
31872;SDS011;22407;42.820;23.374;2023-02-10T05:50:19;29.00;;;9.77;;
31872;SDS011;22407;42.820;23.374;2023-02-10T05:52:44;25.53;;;9.83;;
31872;SDS011;22407;42.820;23.374;2023-02-10T05:55:09;35.43;;;12.30;;
31872;SDS011;22407;42.820;23.374;2023-02-10T05:57:35;29.83;;;12.27;;
31872;SDS011;22407;42.820;23.374;2023-02-10T06:00:00;26.98;;;11.63;;
31872;SDS011;22407;42.820;23.374;2023-02-10T06:02:26;23.57;;;9.13;;
31872;SDS011;22407;42.820;23.374;2023-02-10T06:04:51;23.23;;;7.60;;
31872;SDS011;22407;42.820;23.374;2023-02-10T06:07:16;20.27;;;7.20;;
31872;SDS011;22407;42.820;23.374;2023-02-10T06:09:42;21.43;;;8.63;;
31872;SDS011;22407;42.820;23.374;2023-02-10T06:12:07;26.52;;;10.80;;
31872;SDS011;22407;42.820;23.374;2023-02-10T06:14:33;39.67;;;15.73;;
31872;SDS011;22407;42.820;23.374;2023-02-10T06:16:58;33.70;;;13.00;;
31872;SDS011;22407;42.820;23.374;2023-02-10T06:19:23;32.63;;;14.63;;
31872;SDS011;22407;42.820;23.374;2023-02-10T06:21:49;34.13;;;14.23;;
31872;SDS011;22407;42.820;23.374;2023-02-10T06:24:14;35.80;;;14.50;;
31872;SDS011;22407;42.820;23.374;2023-02-10T06:26:39;41.50;;;18.25;;
31872;SDS011;22407;42.820;23.374;2023-02-10T06:29:05;40.23;;;19.93;;
31872;SDS011;22407;42.820;23.374;2023-02-10T06:31:30;40.27;;;17.70;;
31872;SDS011;22407;42.820;23.374;2023-02-10T06:33:55;50.17;;;19.97;;
31872;SDS011;22407;42.820;23.374;2023-02-10T06:36:20;119.97;;;53.40;;
31872;SDS011;22407;42.820;23.374;2023-02-10T06:38:46;143.73;;;63.30;;
31872;SDS011;22407;42.820;23.374;2023-02-10T06:41:13;130.05;;;55.08;;
31872;SDS011;22407;42.820;23.374;2023-02-10T06:43:38;124.80;;;48.57;;
31872;SDS011;22407;42.820;23.374;2023-02-10T06:46:03;106.50;;;40.77;;
31872;SDS011;22407;42.820;23.374;2023-02-10T06:48:29;99.90;;;33.85;;
31872;SDS011;22407;42.820;23.374;2023-02-10T06:50:54;85.70;;;29.23;;
31872;SDS011;22407;42.820;23.374;2023-02-10T06:53:20;78.63;;;30.27;;
31872;SDS011;22407;42.820;23.374;2023-02-10T06:55:45;81.37;;;28.77;;
31872;SDS011;22407;42.820;23.374;2023-02-10T06:58:10;77.10;;;27.73;;
31872;SDS011;22407;42.820;23.374;2023-02-10T07:00:36;72.70;;;25.80;;
31872;SDS011;22407;42.820;23.374;2023-02-10T07:03:01;80.57;;;27.23;;
31872;SDS011;22407;42.820;23.374;2023-02-10T07:05:27;68.90;;;26.80;;
31872;SDS011;22407;42.820;23.374;2023-02-10T07:07:53;80.20;;;28.30;;
31872;SDS011;22407;42.820;23.374;2023-02-10T07:10:23;76.28;;;27.92;;
31872;SDS011;22407;42.820;23.374;2023-02-10T07:12:48;81.80;;;30.90;;
31872;SDS011;22407;42.820;23.374;2023-02-10T07:15:14;77.80;;;29.33;;
31872;SDS011;22407;42.820;23.374;2023-02-10T07:17:39;81.90;;;31.03;;
31872;SDS011;22407;42.820;23.374;2023-02-10T07:20:05;78.23;;;28.43;;
31872;SDS011;22407;42.820;23.374;2023-02-10T07:22:30;69.63;;;24.58;;
31872;SDS011;22407;42.820;23.374;2023-02-10T07:24:55;64.60;;;24.93;;
31872;SDS011;22407;42.820;23.374;2023-02-10T07:27:21;72.70;;;23.90;;
31872;SDS011;22407;42.820;23.374;2023-02-10T07:29:47;55.65;;;19.17;;
31872;SDS011;22407;42.820;23.374;2023-02-10T07:32:12;50.50;;;18.93;;
31872;SDS011;22407;42.820;23.374;2023-02-10T07:34:38;43.33;;;16.00;;
31872;SDS011;22407;42.820;23.374;2023-02-10T07:37:05;32.83;;;12.23;;
31872;SDS011;22407;42.820;23.374;2023-02-10T07:39:33;38.87;;;13.67;;
31872;SDS011;22407;42.820;23.374;2023-02-10T07:41:58;31.52;;;11.68;;
31872;SDS011;22407;42.820;23.374;2023-02-10T07:44:23;32.53;;;11.50;;
31872;SDS011;22407;42.820;23.374;2023-02-10T07:46:52;33.17;;;12.03;;
31872;SDS011;22407;42.820;23.374;2023-02-10T07:49:17;35.65;;;13.32;;
31872;SDS011;22407;42.820;23.374;2023-02-10T07:51:43;29.67;;;12.50;;
31872;SDS011;22407;42.820;23.374;2023-02-10T07:54:08;70.15;;;24.65;;
31872;SDS011;22407;42.820;23.374;2023-02-10T07:56:33;42.17;;;16.80;;
31872;SDS011;22407;42.820;23.374;2023-02-10T07:58:59;41.33;;;16.10;;
31872;SDS011;22407;42.820;23.374;2023-02-10T08:01:24;35.23;;;12.83;;
31872;SDS011;22407;42.820;23.374;2023-02-10T08:03:49;35.37;;;14.37;;
31872;SDS011;22407;42.820;23.374;2023-02-10T08:06:18;35.33;;;15.87;;
31872;SDS011;22407;42.820;23.374;2023-02-10T08:08:44;31.00;;;12.20;;
31872;SDS011;22407;42.820;23.374;2023-02-10T08:11:09;22.73;;;8.60;;
31872;SDS011;22407;42.820;23.374;2023-02-10T08:13:34;27.87;;;11.13;;
31872;SDS011;22407;42.820;23.374;2023-02-10T08:16:02;30.63;;;11.83;;
31872;SDS011;22407;42.820;23.374;2023-02-10T08:18:28;27.15;;;11.75;;
31872;SDS011;22407;42.820;23.374;2023-02-10T08:20:53;30.40;;;13.07;;
31872;SDS011;22407;42.820;23.374;2023-02-10T08:23:18;72.63;;;34.43;;
31872;SDS011;22407;42.820;23.374;2023-02-10T08:25:44;31.35;;;13.65;;
31872;SDS011;22407;42.820;23.374;2023-02-10T08:28:09;24.80;;;9.33;;
31872;SDS011;22407;42.820;23.374;2023-02-10T08:30:34;26.73;;;11.60;;
31872;SDS011;22407;42.820;23.374;2023-02-10T08:33:00;28.87;;;12.03;;
31872;SDS011;22407;42.820;23.374;2023-02-10T08:35:25;28.30;;;11.10;;
31872;SDS011;22407;42.820;23.374;2023-02-10T08:37:50;25.23;;;9.23;;
31872;SDS011;22407;42.820;23.374;2023-02-10T08:40:16;25.77;;;9.30;;
31872;SDS011;22407;42.820;23.374;2023-02-10T08:42:42;19.57;;;8.50;;
31872;SDS011;22407;42.820;23.374;2023-02-10T08:45:07;26.20;;;9.00;;
31872;SDS011;22407;42.820;23.374;2023-02-10T08:47:33;27.63;;;10.77;;
31872;SDS011;22407;42.820;23.374;2023-02-10T08:49:58;21.73;;;8.43;;
31872;SDS011;22407;42.820;23.374;2023-02-10T08:52:23;25.10;;;8.67;;
31872;SDS011;22407;42.820;23.374;2023-02-10T08:54:49;29.30;;;10.43;;
31872;SDS011;22407;42.820;23.374;2023-02-10T08:57:14;34.60;;;11.85;;
31872;SDS011;22407;42.820;23.374;2023-02-10T08:59:39;36.27;;;13.87;;
31872;SDS011;22407;42.820;23.374;2023-02-10T09:02:05;32.77;;;12.03;;
31872;SDS011;22407;42.820;23.374;2023-02-10T09:04:30;26.93;;;9.80;;
31872;SDS011;22407;42.820;23.374;2023-02-10T09:06:55;39.83;;;16.77;;
31872;SDS011;22407;42.820;23.374;2023-02-10T09:09:22;32.53;;;11.27;;
31872;SDS011;22407;42.820;23.374;2023-02-10T09:11:49;29.92;;;9.15;;
31872;SDS011;22407;42.820;23.374;2023-02-10T09:14:14;22.10;;;8.47;;
31872;SDS011;22407;42.820;23.374;2023-02-10T09:16:40;21.63;;;9.50;;
31872;SDS011;22407;42.820;23.374;2023-02-10T09:19:05;20.43;;;9.07;;
31872;SDS011;22407;42.820;23.374;2023-02-10T09:21:30;23.83;;;9.23;;
31872;SDS011;22407;42.820;23.374;2023-02-10T09:23:56;20.30;;;8.57;;
31872;SDS011;22407;42.820;23.374;2023-02-10T09:26:21;45.77;;;15.40;;
31872;SDS011;22407;42.820;23.374;2023-02-10T09:28:46;21.47;;;8.70;;
31872;SDS011;22407;42.820;23.374;2023-02-10T09:31:12;16.33;;;6.80;;
31872;SDS011;22407;42.820;23.374;2023-02-10T09:33:38;23.90;;;8.60;;
31872;SDS011;22407;42.820;23.374;2023-02-10T09:36:04;26.07;;;10.97;;
31872;SDS011;22407;42.820;23.374;2023-02-10T09:38:29;33.33;;;11.95;;
31872;SDS011;22407;42.820;23.374;2023-02-10T09:46:00;33.28;;;11.50;;
31872;SDS011;22407;42.820;23.374;2023-02-10T09:53:38;20.73;;;8.45;;
31872;SDS011;22407;42.820;23.374;2023-02-10T09:56:04;21.27;;;8.03;;
31872;SDS011;22407;42.820;23.374;2023-02-10T10:00:57;34.10;;;12.63;;
31872;SDS011;22407;42.820;23.374;2023-02-10T10:03:28;21.67;;;8.70;;
31872;SDS011;22407;42.820;23.374;2023-02-10T10:11:09;33.70;;;12.25;;
31872;SDS011;22407;42.820;23.374;2023-02-10T10:13:41;54.38;;;17.08;;
31872;SDS011;22407;42.820;23.374;2023-02-10T10:16:17;54.67;;;18.20;;
31872;SDS011;22407;42.820;23.374;2023-02-10T10:34:43;23.52;;;9.68;;
31872;SDS011;22407;42.820;23.374;2023-02-10T10:37:12;18.00;;;8.02;;
31872;SDS011;22407;42.820;23.374;2023-02-10T10:39:43;29.47;;;12.17;;
31872;SDS011;22407;42.820;23.374;2023-02-10T10:44:57;30.15;;;10.55;;
31872;SDS011;22407;42.820;23.374;2023-02-10T10:47:57;21.15;;;9.52;;
31872;SDS011;22407;42.820;23.374;2023-02-10T10:50:16;20.92;;;9.43;;
31872;SDS011;22407;42.820;23.374;2023-02-10T10:52:42;23.60;;;8.80;;
31872;SDS011;22407;42.820;23.374;2023-02-10T10:57:52;21.98;;;8.48;;
31872;SDS011;22407;42.820;23.374;2023-02-10T11:00:20;16.88;;;7.80;;
31872;SDS011;22407;42.820;23.374;2023-02-10T11:05:17;18.03;;;7.73;;
31872;SDS011;22407;42.820;23.374;2023-02-10T11:07:46;19.92;;;8.23;;
31872;SDS011;22407;42.820;23.374;2023-02-10T11:10:22;20.15;;;8.57;;
31872;SDS011;22407;42.820;23.374;2023-02-10T11:12:49;17.67;;;8.10;;
31872;SDS011;22407;42.820;23.374;2023-02-10T11:15:37;27.10;;;9.63;;
31872;SDS011;22407;42.820;23.374;2023-02-10T11:18:00;18.35;;;7.13;;
31872;SDS011;22407;42.820;23.374;2023-02-10T11:25:36;26.60;;;9.57;;
31872;SDS011;22407;42.820;23.374;2023-02-10T11:28:02;19.80;;;8.00;;
31872;SDS011;22407;42.820;23.374;2023-02-10T11:30:29;20.05;;;7.82;;
31872;SDS011;22407;42.820;23.374;2023-02-10T11:32:55;15.88;;;6.63;;
31872;SDS011;22407;42.820;23.374;2023-02-10T11:35:21;17.30;;;7.67;;
31872;SDS011;22407;42.820;23.374;2023-02-10T11:37:51;17.43;;;7.40;;
31872;SDS011;22407;42.820;23.374;2023-02-10T11:40:18;15.65;;;6.65;;
31872;SDS011;22407;42.820;23.374;2023-02-10T11:42:46;21.65;;;9.88;;
31872;SDS011;22407;42.820;23.374;2023-02-10T11:47:41;23.27;;;8.52;;
31872;SDS011;22407;42.820;23.374;2023-02-10T11:50:19;17.03;;;6.70;;
31872;SDS011;22407;42.820;23.374;2023-02-10T11:52:44;25.47;;;10.17;;
31872;SDS011;22407;42.820;23.374;2023-02-10T11:55:14;28.53;;;12.37;;
31872;SDS011;22407;42.820;23.374;2023-02-10T12:05:48;20.33;;;7.82;;
31872;SDS011;22407;42.820;23.374;2023-02-10T12:21:04;23.60;;;9.10;;
31872;SDS011;22407;42.820;23.374;2023-02-10T12:29:00;16.38;;;6.68;;
31872;SDS011;22407;42.820;23.374;2023-02-10T12:31:44;29.13;;;9.95;;
31872;SDS011;22407;42.820;23.374;2023-02-10T12:39:05;20.07;;;7.20;;
31872;SDS011;22407;42.820;23.374;2023-02-10T12:41:41;20.70;;;7.82;;
31872;SDS011;22407;42.820;23.374;2023-02-10T12:46:58;20.67;;;7.07;;
31872;SDS011;22407;42.820;23.374;2023-02-10T12:49:36;12.25;;;5.20;;
31872;SDS011;22407;42.820;23.374;2023-02-10T12:52:07;19.57;;;7.03;;
31872;SDS011;22407;42.820;23.374;2023-02-10T12:54:43;16.05;;;6.40;;
31872;SDS011;22407;42.820;23.374;2023-02-10T12:59:57;10.45;;;5.05;;
31872;SDS011;22407;42.820;23.374;2023-02-10T13:02:26;12.27;;;6.32;;
31872;SDS011;22407;42.820;23.374;2023-02-10T13:04:54;15.67;;;7.17;;
31872;SDS011;22407;42.820;23.374;2023-02-10T13:07:29;20.83;;;9.82;;
31872;SDS011;22407;42.820;23.374;2023-02-10T13:09:59;14.07;;;6.78;;
31872;SDS011;22407;42.820;23.374;2023-02-10T13:12:28;17.52;;;7.50;;
31872;SDS011;22407;42.820;23.374;2023-02-10T13:15:04;32.15;;;14.05;;
31872;SDS011;22407;42.820;23.374;2023-02-10T13:17:42;27.73;;;12.23;;
31872;SDS011;22407;42.820;23.374;2023-02-10T13:22:49;20.80;;;8.95;;
31872;SDS011;22407;42.820;23.374;2023-02-10T13:25:24;33.33;;;7.80;;
31872;SDS011;22407;42.820;23.374;2023-02-10T13:35:34;14.23;;;5.80;;
31872;SDS011;22407;42.820;23.374;2023-02-10T13:37:59;15.55;;;5.57;;
31872;SDS011;22407;42.820;23.374;2023-02-10T13:40:44;11.50;;;4.97;;
31872;SDS011;22407;42.820;23.374;2023-02-10T13:43:19;12.50;;;5.23;;
31872;SDS011;22407;42.820;23.374;2023-02-10T13:45:49;11.93;;;5.20;;
31872;SDS011;22407;42.820;23.374;2023-02-10T13:48:20;15.88;;;6.93;;
31872;SDS011;22407;42.820;23.374;2023-02-10T13:50:49;21.27;;;8.88;;
31872;SDS011;22407;42.820;23.374;2023-02-10T13:58:32;23.33;;;10.55;;
31872;SDS011;22407;42.820;23.374;2023-02-10T14:00:58;21.15;;;6.93;;
31872;SDS011;22407;42.820;23.374;2023-02-10T14:03:28;13.43;;;6.40;;
31872;SDS011;22407;42.820;23.374;2023-02-10T14:08:32;9.90;;;4.80;;
31872;SDS011;22407;42.820;23.374;2023-02-10T14:13:24;13.57;;;5.67;;
31872;SDS011;22407;42.820;23.374;2023-02-10T14:16:07;14.00;;;5.63;;
31872;SDS011;22407;42.820;23.374;2023-02-10T14:18:56;17.23;;;6.37;;
31872;SDS011;22407;42.820;23.374;2023-02-10T14:21:22;24.08;;;7.43;;
31872;SDS011;22407;42.820;23.374;2023-02-10T14:23:51;39.53;;;12.47;;
31872;SDS011;22407;42.820;23.374;2023-02-10T14:26:32;42.13;;;17.45;;
31872;SDS011;22407;42.820;23.374;2023-02-10T14:29:00;32.78;;;12.70;;
31872;SDS011;22407;42.820;23.374;2023-02-10T14:31:33;28.07;;;13.47;;
31872;SDS011;22407;42.820;23.374;2023-02-10T14:34:02;20.13;;;8.48;;
31872;SDS011;22407;42.820;23.374;2023-02-10T14:36:27;24.88;;;9.43;;
31872;SDS011;22407;42.820;23.374;2023-02-10T14:38:54;22.60;;;10.20;;
31872;SDS011;22407;42.820;23.374;2023-02-10T14:41:20;26.13;;;9.63;;
31872;SDS011;22407;42.820;23.374;2023-02-10T14:43:45;19.95;;;7.38;;
31872;SDS011;22407;42.820;23.374;2023-02-10T14:46:20;18.53;;;9.80;;
31872;SDS011;22407;42.820;23.374;2023-02-10T14:48:46;22.35;;;9.13;;
31872;SDS011;22407;42.820;23.374;2023-02-10T14:51:19;18.43;;;8.00;;
31872;SDS011;22407;42.820;23.374;2023-02-10T14:53:45;37.58;;;14.15;;
31872;SDS011;22407;42.820;23.374;2023-02-10T14:56:24;22.07;;;8.60;;
31872;SDS011;22407;42.820;23.374;2023-02-10T14:58:50;25.33;;;9.30;;
31872;SDS011;22407;42.820;23.374;2023-02-10T15:01:34;27.30;;;11.23;;
31872;SDS011;22407;42.820;23.374;2023-02-10T15:04:00;21.48;;;8.45;;
31872;SDS011;22407;42.820;23.374;2023-02-10T15:06:27;30.40;;;11.97;;
31872;SDS011;22407;42.820;23.374;2023-02-10T15:11:40;24.42;;;8.50;;
31872;SDS011;22407;42.820;23.374;2023-02-10T15:17:30;22.73;;;8.27;;
31872;SDS011;22407;42.820;23.374;2023-02-10T15:20:00;21.38;;;8.55;;
31872;SDS011;22407;42.820;23.374;2023-02-10T15:22:39;24.30;;;9.60;;
31872;SDS011;22407;42.820;23.374;2023-02-10T15:25:38;18.95;;;8.23;;
31872;SDS011;22407;42.820;23.374;2023-02-10T15:33:30;23.50;;;8.65;;
31872;SDS011;22407;42.820;23.374;2023-02-10T15:46:44;31.92;;;13.68;;
31872;SDS011;22407;42.820;23.374;2023-02-10T15:49:11;27.00;;;11.93;;
31872;SDS011;22407;42.820;23.374;2023-02-10T15:51:58;19.80;;;8.52;;
31872;SDS011;22407;42.820;23.374;2023-02-10T15:54:25;34.55;;;10.95;;
31872;SDS011;22407;42.820;23.374;2023-02-10T15:59:23;23.58;;;8.57;;
31872;SDS011;22407;42.820;23.374;2023-02-10T16:01:53;34.67;;;12.80;;
31872;SDS011;22407;42.820;23.374;2023-02-10T16:04:18;19.38;;;8.02;;
31872;SDS011;22407;42.820;23.374;2023-02-10T16:06:44;33.87;;;11.90;;
31872;SDS011;22407;42.820;23.374;2023-02-10T16:09:09;33.40;;;13.07;;
31872;SDS011;22407;42.820;23.374;2023-02-10T16:11:35;30.20;;;10.02;;
31872;SDS011;22407;42.820;23.374;2023-02-10T16:14:00;29.57;;;10.53;;
31872;SDS011;22407;42.820;23.374;2023-02-10T16:16:26;19.27;;;8.07;;
31872;SDS011;22407;42.820;23.374;2023-02-10T16:18:51;14.87;;;7.20;;
31872;SDS011;22407;42.820;23.374;2023-02-10T16:21:16;20.67;;;8.90;;
31872;SDS011;22407;42.820;23.374;2023-02-10T16:23:42;25.03;;;8.53;;
31872;SDS011;22407;42.820;23.374;2023-02-10T16:26:08;24.00;;;8.77;;
31872;SDS011;22407;42.820;23.374;2023-02-10T16:28:36;29.47;;;10.73;;
31872;SDS011;22407;42.820;23.374;2023-02-10T16:31:01;24.13;;;9.70;;
31872;SDS011;22407;42.820;23.374;2023-02-10T16:33:26;28.57;;;12.97;;
31872;SDS011;22407;42.820;23.374;2023-02-10T16:35:52;71.73;;;25.23;;
31872;SDS011;22407;42.820;23.374;2023-02-10T16:38:17;74.63;;;25.90;;
31872;SDS011;22407;42.820;23.374;2023-02-10T16:40:43;65.80;;;24.55;;
31872;SDS011;22407;42.820;23.374;2023-02-10T16:43:09;42.47;;;17.33;;
31872;SDS011;22407;42.820;23.374;2023-02-10T16:45:34;46.90;;;18.10;;
31872;SDS011;22407;42.820;23.374;2023-02-10T16:48:00;55.30;;;20.30;;
31872;SDS011;22407;42.820;23.374;2023-02-10T16:50:36;86.07;;;30.23;;
31872;SDS011;22407;42.820;23.374;2023-02-10T16:53:02;56.90;;;20.42;;
31872;SDS011;22407;42.820;23.374;2023-02-10T16:55:29;33.72;;;12.60;;